AirNav   ProFlight Series 2 Aviation Headset
 
 448 users online  

MS33 Brown's Airport
Charleston, Mississippi, USA

GOING TO CHARLESTON?


FAA INFORMATION EFFECTIVE 18 JUNE 2020

Location

FAA Identifier: MS33
Lat/Long: 33-58-50.2700N 090-10-00.8700W
33-58.837833N 090-10.014500W
33.9806306,-90.1669083
(estimated)
Elevation: 170 ft. / 52 m (estimated)
From city: 6 miles SW of CHARLESTON, MS
Time zone: UTC -5 (UTC -6 during Standard Time)
Zip code: 38928

Airport Operations

Airport use: Private use. Permission required prior to landing
Activation date: 10/2014
Control tower: no
ARTCC: MEMPHIS CENTER
FSS: GREENWOOD FLIGHT SERVICE STATION
Attendance: UNATTND
Wind indicator: yes
Segmented circle: no

Nearby radio navigation aids

VOR radial/distance  VOR name  Freq  Var
SQSr007/31.5SIDON VORTAC114.7003E

Airport Services

Runway Information

Runway 18/36

Dimensions: 3000 x 65 ft. / 914 x 20 m
Surface: turf
RUNWAY 18  RUNWAY 36
Traffic pattern: leftleft

Airport Ownership and Management from official FAA records

Ownership: Privately-owned
Owner: STEVE BROWN
PO BOX 46
CHARLESTON, MS 38921
Phone (662) 647-7065
Manager: STEVE BROWN
PO BOX 46
CHARLESTON, MS 38921
Phone 662-647-7065

Airport Operational Statistics

Aircraft based on the field: 2
Single engine airplanes: 2
    

Additional Remarks

FOR CD CTC MEMPHIS ARTCC AT 901-368-8453.

Instrument Procedures

There are no published instrument procedures at MS33.

Some nearby airports with instrument procedures:

KMMS - Selfs Airport (16 nm N)
KGNF - Grenada Municipal Airport (20 nm SE)
M37 - Ruleville-Drew Airport (22 nm SW)
KCKM - Fletcher Field Airport (26 nm NW)
KPMU - Panola County Airport (27 nm NE)
 
Loc | Ops | Rwys | IFR | FBO | Links
Com | Nav | Svcs | Stats | Notes
Aerial photo
No photo
 
Airport distance calculator
Flying to Brown's Airport? Find the distance to fly.

From to MS33

Sunrise and sunset
Times for 11-Jul-2020
 Local
(UTC-5)
 Zulu
(UTC)
Morning civil twilight05:3110:31
Sunrise06:0011:00
Sunset20:1301:13
Evening civil twilight20:4101:41

Current date and time
Zulu (UTC)  11-Jul-2020 10:48:59
Local (UTC-5)  11-Jul-2020 05:48:59
 
METAR
KCKM 
26nm NW 
111015Z AUTO 00000KT 10SM 24/24 A3001 RMK A01
KPMU 
27nm NE 
111035Z AUTO 00000KT 5SM BR OVC002 22/21 A3001 RMK AO2
KGWO 
29nm S 
111037Z AUTO 00000KT 1/2SM FG CLR 22/22 A3002 RMK AO2 T02220217
KRNV 
32nm SW 
111035Z AUTO 00000KT 4SM BR SCT002 SCT090 23/23 A3001 RMK AO2 T02250225
K5A6 
38nm SE 
111035Z AUTO 10SM BKN090 OVC110 23/23 A3003 RMK AO2 T02280228
KUOX 
40nm NE 
111035Z AUTO 00000KT 9SM CLR 21/21 A3004 RMK AO2 PWINO
TAF
KGWO 
29nm S 
110524Z 1106/1206 00000KT 5SM BR FEW250 FM110900 00000KT 3SM BR FEW250 FM111200 14005KT P6SM FEW040
NOTAMs
Click for the latest NOTAMs
NOTAMs are issued by the DoD/FAA and will open in a separate window not controlled by AirNav.

 

 
 

Would you like to see your business listed on this page?

 If your business provides an interesting product or service to pilots, flight crews, aircraft, or users of the Brown's Airport, you should consider listing it here.  To start the listing process, click on the button below
 
Add a business
 

Other Pages about Brown's Airport

Update a link
 
Copyright © AirNav, LLC. All rights reserved. Privacy Policy  Contact